Main page
METAR-TAF:

METAR-TAF

Airports :

Norwich Airport

Norwich, England

latitude: 52-38N, longitude: 001-18E, elevation: 14 m

Current weather observation

The report was made 30 minutes ago, at 23:50 UTC
Wind 14 kt from the West/Southwest with gusts up to 26 kt, varying between South/Southwest and West
Temperature 5°C
Humidity 81%
Pressure 1013 hPa
Visibility 10 km or more

METAR: EGSH 172350Z AUTO 24014G26KT 210V270 9999 NCD 05/02 Q1013

Time: 00:20 (00:20 UTC)

Forecast

The report was made 4 hours and 25 minutes ago, at 19:55 UTC
Forecast valid from 17 at 21 UTC to 17 at 24 UTC
Wind 15 kt from the West/Southwest
Visibility 10 km or more
Scattered clouds at a height of 3000 ft
Temporary
from 17 at 21 UTC to 17 at 24 UTC
Wind 18 kt from the West/Southwest with gusts up to 30 kt

TAF: EGSH 171955Z 1721/1724 24015KT 9999 SCT030 TEMPO 1721/1724 25018G30KT

Weather observations and forecasts of more than 4000 airports (METAR and TAF reports).

The available stations are represented by yellow and red dots on the map.

Hover mouse over dot to see the name of the station.

Then click to see weather observations and forecasts.

To change the map : click on the green buttons with a black cross to zoom in, on the green button with a dash to zoom out, or on the green arrows for adjacent maps.


METAR-TAF: